createdAt,value
2022-10-31T00:01:58.534Z,100936.13
2022-10-31T00:04:59.948Z,100930.78
2022-10-31T00:08:01.340Z,100929.91
2022-10-31T00:11:02.977Z,100929.00
2022-10-31T00:14:04.510Z,100924.63
2022-10-31T00:17:05.926Z,100931.75
2022-10-31T00:20:07.819Z,100926.44
2022-10-31T00:23:11.360Z,100926.59
2022-10-31T00:26:13.395Z,100926.63
2022-10-31T00:29:14.843Z,100929.34
2022-10-31T00:32:16.459Z,100921.28
2022-10-31T00:35:18.056Z,100921.72
2022-10-31T00:38:20.237Z,100927.19
2022-10-31T00:41:21.742Z,100923.75
2022-10-31T00:44:23.169Z,100928.22
2022-10-31T00:47:24.568Z,100923.16
2022-10-31T00:50:26.233Z,100923.41
2022-10-31T00:53:27.717Z,100922.66
2022-10-31T00:56:29.307Z,100932.16
2022-10-31T00:59:31.145Z,100920.69
2022-10-31T01:02:32.712Z,100924.03
2022-10-31T01:05:35.772Z,100925.03
2022-10-31T01:08:38.379Z,100930.31
2022-10-31T01:11:39.874Z,100926.91
2022-10-31T01:14:45.613Z,100935.97
2022-10-31T01:17:47.848Z,100944.00
2022-10-31T01:21:02.167Z,100937.00
2022-10-31T01:24:03.829Z,100940.41
2022-10-31T01:27:05.254Z,100937.66
2022-10-31T01:30:09.401Z,100938.56
2022-10-31T01:33:10.791Z,100938.75
2022-10-31T01:36:28.078Z,100935.19
2022-10-31T01:39:29.486Z,100937.09
2022-10-31T01:42:30.870Z,100941.84
2022-10-31T01:45:32.332Z,100945.47
2022-10-31T01:48:33.787Z,100947.19
2022-10-31T01:51:39.578Z,100941.13
2022-10-31T01:54:46.045Z,100941.44
2022-10-31T01:57:52.449Z,100933.75
2022-10-31T02:01:00.511Z,100932.31
2022-10-31T02:04:05.676Z,100939.66
2022-10-31T02:07:21.899Z,100930.28
2022-10-31T02:10:25.940Z,100934.94
2022-10-31T02:13:29.331Z,100934.06
2022-10-31T02:16:31.254Z,100942.78
2022-10-31T02:19:56.132Z,100933.03
2022-10-31T02:23:34.570Z,100935.81
2022-10-31T02:26:44.314Z,100932.94
2022-10-31T02:30:06.902Z,100934.88
2022-10-31T02:33:25.526Z,100934.19
2022-10-31T02:36:39.853Z,100922.56
2022-10-31T02:39:57.881Z,100917.22
2022-10-31T02:43:24.038Z,100920.63
2022-10-31T02:46:33.439Z,100925.91
2022-10-31T02:50:07.584Z,100907.44
2022-10-31T02:53:09.003Z,100909.22
2022-10-31T02:56:20.692Z,100919.91
2022-10-31T02:59:23.259Z,100917.16
2022-10-31T03:02:27.779Z,100912.84
2022-10-31T03:05:54.273Z,100922.53
2022-10-31T03:09:00.186Z,100913.72
2022-10-31T03:13:00.242Z,100924.56
2022-10-31T03:16:08.826Z,100924.88
2022-10-31T03:19:15.479Z,100924.09
2022-10-31T03:22:22.950Z,100923.50
2022-10-31T03:25:24.845Z,100918.97
2022-10-31T03:28:38.353Z,100917.13
2022-10-31T03:32:01.209Z,100923.28
2022-10-31T03:35:06.973Z,100921.44
2022-10-31T03:38:10.273Z,100918.66
2022-10-31T03:41:17.002Z,100917.66
2022-10-31T03:44:22.934Z,100915.84
2022-10-31T03:47:33.764Z,100918.72
2022-10-31T03:50:43.599Z,100911.63
2022-10-31T03:53:47.776Z,100916.28
2022-10-31T03:57:12.238Z,100913.63
2022-10-31T04:00:15.462Z,100910.84
2022-10-31T04:03:24.812Z,100908.06
2022-10-31T04:06:28.783Z,100912.50
2022-10-31T04:09:34.100Z,100903.53
2022-10-31T04:12:36.924Z,100896.28
2022-10-31T04:15:56.173Z,100896.31
2022-10-31T04:18:58.054Z,100894.59
2022-10-31T04:21:59.484Z,100896.28
2022-10-31T04:25:00.959Z,100895.69
2022-10-31T04:28:02.780Z,100892.13
2022-10-31T04:31:06.205Z,100895.75
2022-10-31T04:34:11.646Z,100887.72
2022-10-31T04:37:13.511Z,100888.91
2022-10-31T04:40:15.047Z,100892.63
2022-10-31T04:43:39.503Z,100891.94
2022-10-31T04:46:41.032Z,100896.59
2022-10-31T04:49:43.596Z,100904.69
2022-10-31T04:52:47.672Z,100896.16
2022-10-31T04:55:52.520Z,100892.72
2022-10-31T04:58:57.459Z,100892.81
2022-10-31T05:02:00.560Z,100898.75
2022-10-31T05:05:30.973Z,100905.66
2022-10-31T05:08:34.732Z,100896.06
2022-10-31T05:11:39.530Z,100904.78
2022-10-31T05:14:59.227Z,100910.00
2022-10-31T05:18:19.081Z,100909.88
2022-10-31T05:21:43.492Z,100910.69
2022-10-31T05:24:45.993Z,100903.78
2022-10-31T05:27:51.494Z,100914.56
2022-10-31T05:30:53.033Z,100913.38
2022-10-31T05:33:56.116Z,100906.25
2022-10-31T05:37:20.484Z,100897.06
2022-10-31T05:40:22.808Z,100892.69
2022-10-31T05:43:24.429Z,100896.13
2022-10-31T05:46:25.962Z,100895.22
2022-10-31T05:49:56.357Z,100896.22
2022-10-31T05:53:09.554Z,100891.97
2022-10-31T05:56:13.009Z,100892.16
2022-10-31T05:59:15.173Z,100891.25
2022-10-31T06:02:16.606Z,100898.25
2022-10-31T06:05:55.176Z,100897.44
2022-10-31T06:08:59.578Z,100903.94
2022-10-31T06:12:02.089Z,100897.78
2022-10-31T06:15:24.838Z,100907.38
2022-10-31T06:18:27.581Z,100913.16
2022-10-31T06:21:30.160Z,100909.97
2022-10-31T06:24:31.556Z,100913.56
2022-10-31T06:27:39.944Z,100915.19
2022-10-31T06:30:47.961Z,100908.16
2022-10-31T06:33:49.460Z,100908.84
2022-10-31T06:36:50.869Z,100907.81
2022-10-31T06:39:56.036Z,100909.41
2022-10-31T06:43:00.667Z,100914.50
2022-10-31T06:46:04.247Z,100904.88
2022-10-31T06:49:10.032Z,100900.28
2022-10-31T06:52:24.750Z,100899.09
2022-10-31T06:55:27.688Z,100903.28
2022-10-31T06:58:29.278Z,100900.13
2022-10-31T07:01:34.827Z,100896.22
2022-10-31T07:04:36.785Z,100903.50
2022-10-31T07:07:38.612Z,100901.06
2022-10-31T07:10:42.435Z,100910.22
2022-10-31T07:13:44.815Z,100908.13
2022-10-31T07:16:51.432Z,100902.53
2022-10-31T07:19:58.087Z,100908.47
2022-10-31T07:22:59.693Z,100903.41
2022-10-31T07:26:01.482Z,100904.25
2022-10-31T07:29:13.429Z,100894.38
2022-10-31T07:32:14.934Z,100905.66
2022-10-31T07:35:25.129Z,100906.56
2022-10-31T07:38:32.851Z,100900.31
2022-10-31T07:41:38.491Z,100904.47
2022-10-31T07:44:39.924Z,100903.16
2022-10-31T07:48:04.461Z,100905.44
2022-10-31T07:51:46.333Z,100912.25
2022-10-31T07:55:07.930Z,100919.84
2022-10-31T07:58:16.382Z,100916.63
2022-10-31T08:01:17.889Z,100919.72
2022-10-31T08:04:29.010Z,100915.53
2022-10-31T08:07:49.121Z,100915.16
2022-10-31T08:10:55.972Z,100906.78
2022-10-31T08:13:57.443Z,100908.44
2022-10-31T08:16:59.027Z,100891.00
2022-10-31T08:20:09.174Z,100892.69
2022-10-31T08:23:18.116Z,100896.06
2022-10-31T08:26:20.254Z,100890.50
2022-10-31T08:29:26.005Z,100888.56
2022-10-31T08:32:27.623Z,100888.88
2022-10-31T08:36:06.997Z,100891.47
2022-10-31T08:39:29.406Z,100888.81
2022-10-31T08:42:30.816Z,100880.84
2022-10-31T08:45:34.739Z,100881.31
2022-10-31T08:48:36.312Z,100880.03
2022-10-31T08:51:38.658Z,100883.28
2022-10-31T08:54:40.204Z,100886.53
2022-10-31T08:58:00.654Z,100878.88
2022-10-31T09:01:11.058Z,100875.53
2022-10-31T09:04:12.914Z,100873.19
2022-10-31T09:07:20.665Z,100866.25
2022-10-31T09:10:25.116Z,100871.91
2022-10-31T09:13:28.302Z,100872.22
2022-10-31T09:17:07.726Z,100872.66
2022-10-31T09:20:26.457Z,100867.53
2022-10-31T09:23:28.766Z,100861.13
2022-10-31T09:26:31.502Z,100865.91
2022-10-31T09:29:39.707Z,100868.03
2022-10-31T09:32:45.600Z,100865.94
2022-10-31T09:35:47.563Z,100879.63
2022-10-31T09:38:49.010Z,100862.28
2022-10-31T09:42:16.927Z,100866.41
2022-10-31T09:45:33.457Z,100866.41
2022-10-31T09:48:52.730Z,100864.50
2022-10-31T09:52:24.325Z,100856.69
2022-10-31T09:55:37.838Z,100857.53
2022-10-31T09:58:48.258Z,100857.84
2022-10-31T10:01:56.093Z,100847.94
2022-10-31T10:05:00.791Z,100849.88
2022-10-31T10:08:12.888Z,100849.19
2022-10-31T10:12:08.253Z,100836.06
2022-10-31T10:15:24.760Z,100840.53
2022-10-31T10:18:48.239Z,100828.56
2022-10-31T10:21:53.760Z,100834.03
2022-10-31T10:25:26.775Z,100831.84
2022-10-31T10:28:39.021Z,100827.31
2022-10-31T10:31:43.432Z,100818.34
2022-10-31T10:34:50.837Z,100821.16
2022-10-31T10:38:16.802Z,100811.56
2022-10-31T10:41:24.309Z,100810.34
2022-10-31T10:44:44.383Z,100803.72
2022-10-31T10:48:00.336Z,100797.78
2022-10-31T10:51:03.635Z,100790.25
2022-10-31T10:54:25.820Z,100786.44
2022-10-31T10:58:05.520Z,100798.91
2022-10-31T11:04:30.785Z,100786.59
2022-10-31T11:07:40.653Z,100772.34
2022-10-31T11:10:42.235Z,100770.63
2022-10-31T11:13:46.578Z,100766.16
2022-10-31T11:16:51.442Z,100759.81
2022-10-31T11:20:05.854Z,100758.53
2022-10-31T11:23:27.670Z,100742.19
2022-10-31T11:26:29.055Z,100740.78
2022-10-31T11:29:30.519Z,100745.63
2022-10-31T11:32:32.431Z,100742.59
2022-10-31T11:35:34.374Z,100741.59
2022-10-31T11:38:41.819Z,100730.25
2022-10-31T11:41:43.544Z,100729.03
2022-10-31T11:44:45.442Z,100732.44
2022-10-31T11:47:59.210Z,100714.56
2022-10-31T11:51:01.683Z,100719.69
2022-10-31T11:54:05.052Z,100707.94
2022-10-31T11:57:06.477Z,100702.47
2022-10-31T12:00:20.806Z,100695.75
2022-10-31T12:03:25.152Z,100693.31
2022-10-31T12:06:37.111Z,100693.22
2022-10-31T12:09:39.416Z,100695.56
2022-10-31T12:12:41.464Z,100688.91
2022-10-31T12:15:53.816Z,100687.25
2022-10-31T12:19:33.831Z,100688.03
2022-10-31T12:22:57.739Z,100687.34
2022-10-31T12:26:35.472Z,100694.41
2022-10-31T12:30:12.986Z,100695.56
2022-10-31T12:33:27.110Z,100692.50
2022-10-31T12:36:58.875Z,100686.22
2022-10-31T12:40:38.899Z,100675.28
2022-10-31T12:44:16.165Z,100667.38
2022-10-31T12:47:45.323Z,100656.91
2022-10-31T12:51:24.277Z,100664.63
2022-10-31T12:54:55.175Z,100662.31
2022-10-31T12:58:10.306Z,100651.28
2022-10-31T13:01:41.677Z,100638.44
2022-10-31T13:04:50.283Z,100619.22
2022-10-31T13:08:00.187Z,100599.06
2022-10-31T13:11:32.075Z,100584.50
2022-10-31T13:14:39.944Z,100580.97
2022-10-31T13:17:47.955Z,100571.38
2022-10-31T13:20:54.700Z,100568.88
2022-10-31T13:24:02.024Z,100582.97
2022-10-31T13:27:14.191Z,100577.66
2022-10-31T13:30:18.855Z,100575.44
2022-10-31T13:33:30.612Z,100571.53
2022-10-31T13:36:35.070Z,100574.28
2022-10-31T13:39:55.669Z,100571.13
2022-10-31T13:43:17.276Z,100578.03
2022-10-31T13:46:34.111Z,100582.00
2022-10-31T13:49:35.478Z,100568.53
2022-10-31T13:52:38.277Z,100576.72
2022-10-31T13:55:44.369Z,100591.63
2022-10-31T13:59:18.041Z,100588.16
2022-10-31T14:02:27.051Z,100578.88
2022-10-31T14:05:32.166Z,100581.31
2022-10-31T14:08:36.697Z,100581.50
2022-10-31T14:11:38.184Z,100578.88
2022-10-31T14:14:48.792Z,100573.13
2022-10-31T14:18:05.011Z,100575.53
2022-10-31T14:21:24.788Z,100569.25
2022-10-31T14:24:26.108Z,100568.38
2022-10-31T14:27:27.460Z,100563.72
2022-10-31T14:30:34.553Z,100555.53
2022-10-31T14:33:36.069Z,100550.19
2022-10-31T14:36:43.756Z,100544.66
2022-10-31T14:40:13.246Z,100546.75
2022-10-31T14:43:35.135Z,100540.94
2022-10-31T14:47:11.911Z,100531.72
2022-10-31T14:50:22.970Z,100538.97
2022-10-31T14:53:34.717Z,100540.69
2022-10-31T14:56:41.955Z,100541.06
2022-10-31T14:59:50.697Z,100553.72
2022-10-31T15:03:06.183Z,100564.97
2022-10-31T15:06:13.970Z,100554.78
2022-10-31T15:09:27.323Z,100548.88
2022-10-31T15:12:34.836Z,100549.25
2022-10-31T15:15:36.529Z,100527.91
2022-10-31T15:18:47.026Z,100526.00
2022-10-31T15:21:50.789Z,100528.56
2022-10-31T15:24:57.042Z,100512.47
2022-10-31T15:27:58.692Z,100506.91
2022-10-31T15:31:03.100Z,100504.66
2022-10-31T15:34:17.232Z,100488.66
2022-10-31T15:37:25.143Z,100473.69
2022-10-31T15:40:27.859Z,100478.38
2022-10-31T15:43:36.706Z,100482.56
2022-10-31T15:46:38.260Z,100472.25
2022-10-31T15:49:42.496Z,100468.09
2022-10-31T15:52:48.491Z,100456.56
2022-10-31T15:55:55.513Z,100443.59
2022-10-31T15:58:59.441Z,100424.47
2022-10-31T16:02:03.927Z,100423.72
2022-10-31T16:05:17.886Z,100418.56
2022-10-31T16:08:26.884Z,100418.56
2022-10-31T16:11:39.925Z,100400.69
2022-10-31T16:14:42.302Z,100375.16
2022-10-31T16:17:47.096Z,100357.16
2022-10-31T16:20:56.108Z,100358.66
2022-10-31T16:24:06.404Z,100375.88
2022-10-31T16:27:19.099Z,100391.13
2022-10-31T16:30:38.762Z,100399.31
2022-10-31T16:33:41.422Z,100417.38
2022-10-31T16:36:44.103Z,100410.34
2022-10-31T16:39:45.490Z,100411.75
2022-10-31T16:42:49.721Z,100437.75
2022-10-31T16:45:52.885Z,100463.09
2022-10-31T16:48:55.244Z,100483.59
2022-10-31T16:51:56.644Z,100470.03
2022-10-31T16:54:58.083Z,100454.25
2022-10-31T16:57:59.829Z,100443.41
2022-10-31T17:01:03.043Z,100455.47
2022-10-31T17:04:04.525Z,100444.50
2022-10-31T17:07:05.925Z,100417.69
2022-10-31T17:10:08.472Z,100408.19
2022-10-31T17:13:20.891Z,100422.25
2022-10-31T17:16:22.386Z,100410.28
2022-10-31T17:19:23.794Z,100401.19
2022-10-31T17:22:25.220Z,100412.19
2022-10-31T17:25:29.732Z,100406.88
2022-10-31T17:28:31.167Z,100411.41
2022-10-31T17:31:36.498Z,100394.88
2022-10-31T17:34:37.899Z,100395.88
2022-10-31T17:37:41.501Z,100394.28
2022-10-31T17:40:42.947Z,100382.19
2022-10-31T17:43:44.438Z,100375.81
2022-10-31T17:46:45.904Z,100388.19
2022-10-31T17:49:47.383Z,100378.25
2022-10-31T17:52:49.168Z,100372.84
2022-10-31T17:55:50.668Z,100381.84
2022-10-31T17:58:52.167Z,100391.25
2022-10-31T18:01:53.692Z,100412.19
2022-10-31T18:04:55.309Z,100419.59
2022-10-31T18:08:00.883Z,100427.72
2022-10-31T18:11:14.660Z,100426.00
2022-10-31T18:14:16.076Z,100429.72
2022-10-31T18:17:17.854Z,100407.00
2022-10-31T18:20:19.256Z,100408.19
2022-10-31T18:23:20.674Z,100444.56
2022-10-31T18:26:22.922Z,100463.19
2022-10-31T18:29:24.576Z,100468.31
2022-10-31T18:32:26.013Z,100444.81
2022-10-31T18:35:27.404Z,100446.72
2022-10-31T18:38:28.786Z,100446.59
2022-10-31T18:41:30.219Z,100455.19
2022-10-31T18:44:32.586Z,100445.75
2022-10-31T18:47:34.051Z,100432.38
2022-10-31T18:50:39.614Z,100432.19
2022-10-31T18:53:41.208Z,100435.63
2022-10-31T18:56:42.630Z,100435.47
2022-10-31T18:59:44.059Z,100432.91
2022-10-31T19:02:45.694Z,100424.06
2022-10-31T19:05:47.137Z,100431.16
2022-10-31T19:08:48.517Z,100432.03
2022-10-31T19:11:50.160Z,100434.63
2022-10-31T19:14:51.626Z,100424.84
2022-10-31T19:17:53.235Z,100412.03
2022-10-31T19:20:54.699Z,100409.38
2022-10-31T19:23:57.217Z,100408.72
2022-10-31T19:27:00.577Z,100407.13
2022-10-31T19:30:02.026Z,100416.75
2022-10-31T19:33:03.491Z,100422.59
2022-10-31T19:36:10.946Z,100414.41
2022-10-31T19:39:12.473Z,100408.50
2022-10-31T19:42:13.869Z,100424.50
2022-10-31T19:45:15.287Z,100424.13
2022-10-31T19:48:16.669Z,100417.84
2022-10-31T19:51:20.313Z,100430.28
2022-10-31T19:54:21.877Z,100411.16
2022-10-31T19:57:41.921Z,100422.19
2022-10-31T20:00:44.720Z,100456.16
2022-10-31T20:03:47.145Z,100449.06
2022-10-31T20:06:48.540Z,100465.63
2022-10-31T20:09:50.523Z,100448.13
2022-10-31T20:12:51.948Z,100462.34
2022-10-31T20:15:58.932Z,100460.22
2022-10-31T20:19:00.645Z,100457.81
2022-10-31T20:22:02.249Z,100471.00
2022-10-31T20:25:04.763Z,100473.72
2022-10-31T20:28:06.220Z,100486.94
2022-10-31T20:31:19.897Z,100474.59
2022-10-31T20:34:21.398Z,100482.78
2022-10-31T20:37:22.790Z,100467.00
2022-10-31T20:40:24.187Z,100465.28
2022-10-31T20:43:25.678Z,100466.13
2022-10-31T20:46:27.561Z,100459.84
2022-10-31T20:49:30.247Z,100467.88
2022-10-31T20:52:31.687Z,100459.28
2022-10-31T20:55:33.258Z,100454.66
2022-10-31T20:58:35.538Z,100461.69
2022-10-31T21:01:38.243Z,100454.59
2022-10-31T21:04:39.790Z,100450.28
2022-10-31T21:07:41.476Z,100451.25
2022-10-31T21:10:42.925Z,100443.13
2022-10-31T21:13:46.400Z,100442.03
2022-10-31T21:16:47.795Z,100440.34
2022-10-31T21:19:49.191Z,100445.78
2022-10-31T21:22:50.681Z,100429.06
2022-10-31T21:25:52.727Z,100434.38
2022-10-31T21:28:56.476Z,100430.16
2022-10-31T21:31:57.932Z,100445.69
2022-10-31T21:34:59.368Z,100449.63
2022-10-31T21:38:01.055Z,100447.44
2022-10-31T21:41:07.605Z,100436.91
2022-10-31T21:44:09.106Z,100438.56
2022-10-31T21:47:10.513Z,100446.56
2022-10-31T21:50:11.922Z,100449.53
2022-10-31T21:53:51.823Z,100455.00
2022-10-31T21:56:57.294Z,100433.75
2022-10-31T21:59:59.116Z,100441.47
2022-10-31T22:03:01.029Z,100433.34
2022-10-31T22:06:04.118Z,100445.91
2022-10-31T22:09:08.021Z,100440.66
2022-10-31T22:12:09.729Z,100446.91
2022-10-31T22:15:11.107Z,100442.22
2022-10-31T22:18:12.524Z,100440.53
2022-10-31T22:21:19.484Z,100436.81
2022-10-31T22:24:20.946Z,100428.88
2022-10-31T22:27:22.423Z,100433.25
2022-10-31T22:30:23.812Z,100428.81
2022-10-31T22:33:25.934Z,100431.34
2022-10-31T22:36:29.305Z,100434.00
2022-10-31T22:39:30.683Z,100424.19
2022-10-31T22:42:32.699Z,100415.31
2022-10-31T22:45:34.099Z,100426.91
2022-10-31T22:48:38.703Z,100427.09
2022-10-31T22:51:41.366Z,100425.38
2022-10-31T22:54:42.958Z,100424.63
2022-10-31T22:57:44.355Z,100429.28
2022-10-31T23:00:45.785Z,100421.34
2022-10-31T23:03:47.960Z,100423.25
2022-10-31T23:06:49.356Z,100426.94
2022-10-31T23:09:51.646Z,100432.38
2022-10-31T23:13:11.492Z,100402.97
2022-10-31T23:16:13.515Z,100417.91
2022-10-31T23:19:18.718Z,100410.63
2022-10-31T23:22:20.817Z,100410.72
2022-10-31T23:25:40.568Z,100424.75
2022-10-31T23:28:41.959Z,100433.50
2022-10-31T23:31:43.347Z,100437.25
2022-10-31T23:34:45.736Z,100427.47
2022-10-31T23:37:47.109Z,100431.00
2022-10-31T23:40:48.495Z,100428.22
2022-10-31T23:43:49.951Z,100420.38
2022-10-31T23:46:51.541Z,100418.75
2022-10-31T23:49:52.918Z,100413.38
2022-10-31T23:52:54.288Z,100404.47
2022-10-31T23:55:55.959Z,100401.81
2022-10-31T23:58:57.359Z,100403.72
